createdAt,value
2022-07-29T00:01:42.917Z,3.00
2022-07-29T00:04:10.340Z,3.10
2022-07-29T00:06:37.736Z,3.00
2022-07-29T00:09:05.398Z,2.90
2022-07-29T00:11:32.755Z,2.80
2022-07-29T00:14:00.198Z,2.60
2022-07-29T00:16:27.620Z,2.60
2022-07-29T00:18:55.115Z,2.50
2022-07-29T00:21:22.363Z,2.60
2022-07-29T00:23:49.713Z,2.70
2022-07-29T00:26:16.865Z,2.80
2022-07-29T00:28:44.241Z,2.80
2022-07-29T00:31:12.173Z,3.20
2022-07-29T00:33:39.439Z,2.60
2022-07-29T00:36:07.118Z,2.50
2022-07-29T00:38:34.458Z,2.50
2022-07-29T00:41:01.940Z,2.80
2022-07-29T00:43:29.378Z,3.00
2022-07-29T00:45:57.259Z,2.40
2022-07-29T00:48:24.819Z,2.80
2022-07-29T00:50:52.485Z,2.80
2022-07-29T00:53:21.756Z,2.50
2022-07-29T00:55:49.462Z,3.40
2022-07-29T00:58:16.900Z,3.20
2022-07-29T01:00:45.499Z,2.80
2022-07-29T01:03:13.536Z,3.20
2022-07-29T01:05:50.429Z,2.70
2022-07-29T01:08:20.527Z,2.80
2022-07-29T01:10:48.391Z,2.80
2022-07-29T01:13:16.475Z,2.80
2022-07-29T01:15:49.469Z,3.20
2022-07-29T01:18:25.691Z,2.90
2022-07-29T01:21:15.095Z,2.60
2022-07-29T01:23:59.855Z,2.60
2022-07-29T01:26:59.832Z,2.90
2022-07-29T01:30:00.324Z,3.00
2022-07-29T01:32:30.687Z,3.10
2022-07-29T01:35:16.814Z,2.80
2022-07-29T01:38:06.804Z,2.90
2022-07-29T01:40:53.316Z,2.60
2022-07-29T01:43:30.968Z,2.50
2022-07-29T01:46:02.234Z,2.90
2022-07-29T01:48:40.801Z,2.60
2022-07-29T01:51:21.858Z,2.90
2022-07-29T01:53:52.077Z,2.50
2022-07-29T01:56:21.329Z,2.90
2022-07-29T01:58:50.162Z,3.00
2022-07-29T02:01:18.297Z,2.70
2022-07-29T02:03:47.041Z,2.70
2022-07-29T02:06:17.354Z,3.10
2022-07-29T02:08:45.116Z,3.20
2022-07-29T02:11:13.073Z,2.70
2022-07-29T02:13:41.654Z,3.00
2022-07-29T02:16:10.293Z,3.30
2022-07-29T02:18:39.535Z,2.90
2022-07-29T02:21:07.215Z,3.40
2022-07-29T02:23:50.641Z,2.90
2022-07-29T02:26:22.157Z,3.40
2022-07-29T02:28:51.925Z,3.40
2022-07-29T02:31:21.053Z,3.20
2022-07-29T02:33:49.158Z,3.30
2022-07-29T02:36:18.577Z,3.60
2022-07-29T02:38:52.401Z,3.10
2022-07-29T02:41:28.073Z,3.10
2022-07-29T02:44:03.964Z,2.90
2022-07-29T02:46:33.904Z,2.50
2022-07-29T02:49:09.263Z,2.90
2022-07-29T02:52:26.474Z,2.90
2022-07-29T02:55:01.276Z,2.90
2022-07-29T02:57:31.966Z,3.10
2022-07-29T03:00:01.783Z,3.00
2022-07-29T03:02:30.215Z,3.00
2022-07-29T03:04:59.908Z,3.00
2022-07-29T03:07:28.614Z,3.10
2022-07-29T03:09:56.053Z,3.10
2022-07-29T03:12:23.813Z,3.40
2022-07-29T03:14:52.619Z,3.40
2022-07-29T03:17:20.197Z,3.10
2022-07-29T03:19:47.837Z,3.50
2022-07-29T03:22:15.386Z,3.30
2022-07-29T03:24:47.761Z,3.20
2022-07-29T03:27:15.234Z,3.60
2022-07-29T03:29:49.626Z,3.20
2022-07-29T03:32:23.922Z,3.00
2022-07-29T03:34:52.642Z,3.30
2022-07-29T03:37:19.996Z,3.30
2022-07-29T03:39:47.765Z,3.10
2022-07-29T03:42:17.164Z,3.00
2022-07-29T03:44:46.694Z,3.00
2022-07-29T03:47:16.603Z,3.30
2022-07-29T03:49:44.138Z,2.80
2022-07-29T03:52:11.603Z,2.70
2022-07-29T03:54:38.975Z,3.30
2022-07-29T03:57:07.755Z,2.90
2022-07-29T03:59:35.515Z,2.80
2022-07-29T04:02:04.562Z,2.80
2022-07-29T04:04:35.031Z,2.90
2022-07-29T04:07:02.387Z,2.50
2022-07-29T04:09:29.734Z,2.80
2022-07-29T04:12:03.158Z,2.70
2022-07-29T04:14:36.033Z,2.60
2022-07-29T04:17:05.050Z,2.60
2022-07-29T04:19:32.868Z,3.00
2022-07-29T04:22:01.154Z,3.00
2022-07-29T04:24:29.373Z,3.80
2022-07-29T04:26:56.676Z,2.70
2022-07-29T04:29:23.936Z,2.70
2022-07-29T04:31:51.498Z,2.60
2022-07-29T04:34:19.697Z,2.30
2022-07-29T04:36:47.423Z,2.80
2022-07-29T04:39:18.061Z,2.70
2022-07-29T04:41:48.578Z,2.60
2022-07-29T04:44:16.145Z,2.90
2022-07-29T04:46:44.767Z,2.80
2022-07-29T04:49:13.482Z,2.80
2022-07-29T04:51:41.296Z,2.70
2022-07-29T04:54:08.954Z,2.90
2022-07-29T04:56:36.286Z,2.60
2022-07-29T04:59:03.453Z,1.80
2022-07-29T05:01:30.890Z,2.40
2022-07-29T05:04:00.642Z,2.30
2022-07-29T05:06:28.276Z,2.50
2022-07-29T05:08:55.527Z,2.20
2022-07-29T05:11:26.150Z,2.40
2022-07-29T05:13:57.415Z,2.20
2022-07-29T05:16:24.807Z,2.40
2022-07-29T05:18:52.208Z,2.10
2022-07-29T05:21:19.577Z,2.70
2022-07-29T05:23:46.955Z,2.60
2022-07-29T05:26:14.393Z,2.00
2022-07-29T05:28:41.837Z,2.30
2022-07-29T05:31:09.247Z,2.10
2022-07-29T05:33:37.566Z,2.30
2022-07-29T05:36:08.585Z,2.30
2022-07-29T05:38:37.115Z,2.80
2022-07-29T05:41:05.600Z,2.60
2022-07-29T05:43:33.554Z,2.00
2022-07-29T05:46:01.222Z,2.40
2022-07-29T05:48:29.698Z,2.30
2022-07-29T05:50:57.138Z,2.50
2022-07-29T05:53:24.398Z,2.30
2022-07-29T05:55:53.468Z,2.10
2022-07-29T05:58:21.361Z,2.20
2022-07-29T06:00:48.600Z,2.20
2022-07-29T06:03:15.976Z,2.30
2022-07-29T06:05:43.308Z,2.10
2022-07-29T06:08:10.671Z,1.90
2022-07-29T06:10:38.028Z,1.80
2022-07-29T06:13:05.271Z,1.70
2022-07-29T06:15:32.769Z,1.80
2022-07-29T06:18:01.727Z,1.90
2022-07-29T06:20:33.300Z,2.10
2022-07-29T06:23:01.044Z,1.90
2022-07-29T06:25:32.081Z,2.10
2022-07-29T06:27:59.550Z,3.10
2022-07-29T06:30:27.089Z,2.00
2022-07-29T06:32:54.551Z,1.70
2022-07-29T06:35:38.919Z,2.10
2022-07-29T06:38:25.631Z,1.90
2022-07-29T06:41:04.050Z,1.30
2022-07-29T06:43:35.192Z,2.00
2022-07-29T06:46:05.880Z,1.40
2022-07-29T06:48:34.043Z,1.40
2022-07-29T06:51:01.952Z,2.00
2022-07-29T06:53:30.222Z,1.90
2022-07-29T06:55:59.725Z,2.00
2022-07-29T06:58:28.062Z,2.00
2022-07-29T07:00:59.218Z,1.60
2022-07-29T07:03:27.204Z,1.70
2022-07-29T07:05:55.616Z,1.80
2022-07-29T07:08:23.663Z,1.80
2022-07-29T07:10:52.373Z,2.00
2022-07-29T07:13:20.625Z,1.90
2022-07-29T07:15:49.724Z,1.60
2022-07-29T07:18:19.456Z,1.50
2022-07-29T07:20:47.015Z,1.50
2022-07-29T07:23:15.501Z,1.70
2022-07-29T07:25:43.539Z,1.70
2022-07-29T07:28:11.003Z,1.30
2022-07-29T07:30:39.635Z,1.80
2022-07-29T07:33:07.350Z,1.50
2022-07-29T07:35:34.801Z,2.20
2022-07-29T07:38:02.059Z,1.80
2022-07-29T07:40:30.455Z,1.70
2022-07-29T07:42:58.297Z,1.70
2022-07-29T07:45:27.028Z,1.70
2022-07-29T07:47:55.472Z,1.70
2022-07-29T07:50:23.956Z,1.80
2022-07-29T07:52:56.627Z,1.90
2022-07-29T07:55:24.086Z,1.60
2022-07-29T07:57:51.743Z,1.70
2022-07-29T08:00:19.209Z,1.80
2022-07-29T08:02:51.395Z,1.50
2022-07-29T08:05:19.459Z,1.50
2022-07-29T08:07:48.125Z,1.60
2022-07-29T08:10:37.294Z,2.10
2022-07-29T08:13:06.605Z,1.80
2022-07-29T08:15:34.045Z,1.60
2022-07-29T08:18:07.919Z,2.10
2022-07-29T08:20:37.173Z,1.60
2022-07-29T08:23:05.868Z,1.70
2022-07-29T08:25:38.509Z,2.00
2022-07-29T08:28:07.937Z,1.80
2022-07-29T08:30:36.207Z,1.70
2022-07-29T08:33:03.673Z,1.60
2022-07-29T08:35:35.058Z,1.70
2022-07-29T08:38:04.916Z,1.90
2022-07-29T08:40:33.117Z,2.00
2022-07-29T08:43:06.614Z,1.70
2022-07-29T08:45:47.282Z,2.20
2022-07-29T08:48:18.012Z,1.50
2022-07-29T08:50:46.702Z,1.80
2022-07-29T08:53:17.778Z,1.90
2022-07-29T08:55:46.766Z,2.30
2022-07-29T08:58:15.768Z,1.60
2022-07-29T09:00:49.515Z,1.80
2022-07-29T09:03:20.816Z,1.80
2022-07-29T09:05:49.649Z,1.80
2022-07-29T09:08:18.633Z,2.00
2022-07-29T09:10:46.509Z,1.90
2022-07-29T09:13:14.064Z,1.80
2022-07-29T09:15:41.421Z,2.00
2022-07-29T09:18:19.761Z,1.90
2022-07-29T09:21:28.460Z,1.90
2022-07-29T09:24:10.578Z,1.90
2022-07-29T09:26:43.234Z,1.70
2022-07-29T09:29:16.327Z,2.10
2022-07-29T09:31:51.390Z,1.80
2022-07-29T09:34:26.517Z,2.10
2022-07-29T09:36:56.371Z,1.50
2022-07-29T09:39:32.863Z,2.10
2022-07-29T09:42:02.701Z,2.30
2022-07-29T09:44:47.260Z,2.10
2022-07-29T09:47:14.849Z,1.90
2022-07-29T09:50:00.671Z,1.90
2022-07-29T09:52:29.517Z,2.20
2022-07-29T09:55:10.093Z,2.20
2022-07-29T09:57:41.362Z,1.70
2022-07-29T10:00:17.643Z,2.50
2022-07-29T10:02:46.463Z,1.80
2022-07-29T10:05:36.512Z,2.10
2022-07-29T10:08:05.315Z,2.20
2022-07-29T10:10:35.910Z,2.20
2022-07-29T10:13:15.070Z,2.00
2022-07-29T10:15:46.494Z,2.00
2022-07-29T10:18:16.424Z,2.10
2022-07-29T10:20:44.024Z,2.10
2022-07-29T10:23:11.468Z,2.00
2022-07-29T10:25:45.628Z,2.00
2022-07-29T10:28:16.571Z,2.00
2022-07-29T10:30:47.758Z,2.10
2022-07-29T10:33:28.244Z,1.90
2022-07-29T10:36:25.652Z,2.40
2022-07-29T10:39:44.548Z,1.80
2022-07-29T10:42:29.711Z,2.30
2022-07-29T10:45:03.025Z,2.30
2022-07-29T10:47:32.275Z,2.30
2022-07-29T10:50:05.265Z,2.20
2022-07-29T10:52:52.175Z,2.40
2022-07-29T10:55:44.685Z,2.30
2022-07-29T10:58:24.013Z,2.50
2022-07-29T11:00:53.713Z,2.60
2022-07-29T11:03:52.143Z,2.10
2022-07-29T11:06:26.633Z,2.40
2022-07-29T11:09:34.748Z,2.50
2022-07-29T11:12:03.249Z,2.00
2022-07-29T11:15:00.403Z,2.30
2022-07-29T11:17:28.503Z,2.30
2022-07-29T11:20:37.809Z,2.20
2022-07-29T11:23:25.652Z,2.20
2022-07-29T11:26:12.802Z,2.30
2022-07-29T11:28:53.478Z,2.60
2022-07-29T11:31:34.039Z,2.10
2022-07-29T11:34:28.159Z,2.20
2022-07-29T11:37:12.614Z,2.40
2022-07-29T11:39:43.622Z,2.30
2022-07-29T11:42:32.147Z,2.40
2022-07-29T11:45:44.412Z,2.20
2022-07-29T11:48:05.869Z,2.40
2022-07-29T11:50:49.446Z,2.00
2022-07-29T11:53:17.503Z,2.40
2022-07-29T11:55:51.217Z,2.50
2022-07-29T11:58:24.887Z,2.30
2022-07-29T12:00:55.612Z,2.20
2022-07-29T12:03:40.839Z,2.10
2022-07-29T12:06:18.547Z,1.80
2022-07-29T12:08:48.731Z,2.30
2022-07-29T12:11:22.360Z,2.20
2022-07-29T12:13:52.078Z,2.20
2022-07-29T12:16:25.121Z,1.80
2022-07-29T12:18:59.379Z,2.10
2022-07-29T12:21:28.708Z,2.30
2022-07-29T12:24:04.826Z,2.10
2022-07-29T12:26:36.151Z,1.90
2022-07-29T12:29:07.323Z,2.20
2022-07-29T12:31:43.199Z,2.00
2022-07-29T12:34:16.141Z,2.10
2022-07-29T12:36:44.721Z,2.30
2022-07-29T12:39:12.767Z,2.20
2022-07-29T12:41:40.454Z,2.00
2022-07-29T12:44:08.947Z,1.90
2022-07-29T12:46:36.390Z,2.30
2022-07-29T12:49:04.725Z,2.10
2022-07-29T12:51:40.729Z,2.10
2022-07-29T12:54:13.008Z,2.20
2022-07-29T12:56:43.561Z,2.40
2022-07-29T12:59:20.122Z,2.60
2022-07-29T13:01:50.590Z,1.90
2022-07-29T13:04:34.784Z,2.20
2022-07-29T13:07:10.385Z,1.90
2022-07-29T13:09:49.151Z,1.90
2022-07-29T13:12:16.769Z,2.40
2022-07-29T13:14:46.406Z,2.30
2022-07-29T13:17:20.889Z,2.30
2022-07-29T13:19:48.455Z,2.30
2022-07-29T13:22:18.736Z,2.00
2022-07-29T13:24:56.205Z,2.70
2022-07-29T13:27:26.353Z,2.40
2022-07-29T13:29:57.863Z,2.30
2022-07-29T13:32:27.854Z,2.30
2022-07-29T13:35:00.733Z,2.40
2022-07-29T13:37:30.990Z,2.40
2022-07-29T13:39:58.764Z,2.30
2022-07-29T13:42:26.332Z,2.30
2022-07-29T13:44:53.626Z,2.10
2022-07-29T13:47:21.914Z,2.20
2022-07-29T13:49:50.572Z,2.70
2022-07-29T13:52:17.929Z,2.30
2022-07-29T13:54:45.203Z,2.50
2022-07-29T13:57:13.642Z,2.20
2022-07-29T13:59:41.662Z,2.50
2022-07-29T14:02:09.978Z,2.50
2022-07-29T14:04:37.487Z,2.00
2022-07-29T14:07:08.782Z,2.00
2022-07-29T14:09:41.499Z,2.30
2022-07-29T14:12:09.967Z,2.30
2022-07-29T14:14:38.116Z,2.20
2022-07-29T14:17:08.065Z,2.00
2022-07-29T14:19:40.571Z,2.10
2022-07-29T14:22:09.827Z,2.40
2022-07-29T14:24:38.808Z,2.60
2022-07-29T14:27:07.344Z,2.30
2022-07-29T14:29:37.425Z,2.40
2022-07-29T14:32:08.294Z,1.90
2022-07-29T14:34:39.598Z,2.30
2022-07-29T14:37:07.922Z,1.90
2022-07-29T14:39:43.273Z,2.50
2022-07-29T14:42:13.049Z,2.30
2022-07-29T14:44:42.404Z,2.50
2022-07-29T14:47:09.981Z,2.30
2022-07-29T14:49:38.052Z,2.50
2022-07-29T14:52:06.120Z,2.00
2022-07-29T14:54:33.882Z,1.90
2022-07-29T14:57:01.355Z,2.30
2022-07-29T14:59:29.621Z,2.30
2022-07-29T15:01:57.427Z,2.30
2022-07-29T15:04:25.054Z,2.40
2022-07-29T15:06:53.539Z,2.80
2022-07-29T15:09:20.878Z,2.40
2022-07-29T15:11:51.711Z,2.70
2022-07-29T15:14:19.078Z,2.10
2022-07-29T15:16:48.121Z,2.80
2022-07-29T15:19:16.355Z,2.70
2022-07-29T15:21:48.604Z,2.50
2022-07-29T15:24:19.358Z,2.80
2022-07-29T15:26:47.616Z,2.70
2022-07-29T15:29:16.726Z,2.50
2022-07-29T15:31:44.915Z,2.30
2022-07-29T15:34:12.566Z,3.00
2022-07-29T15:36:56.059Z,2.70
2022-07-29T15:39:24.044Z,2.60
2022-07-29T15:41:52.141Z,2.60
2022-07-29T15:44:20.860Z,2.60
2022-07-29T15:47:04.359Z,2.50
2022-07-29T15:49:47.689Z,2.90
2022-07-29T15:52:24.972Z,2.70
2022-07-29T15:54:58.375Z,3.10
2022-07-29T15:57:26.412Z,3.10
2022-07-29T15:59:54.327Z,3.00
2022-07-29T16:02:22.997Z,2.70
2022-07-29T16:04:53.314Z,3.20
2022-07-29T16:07:20.661Z,3.30
2022-07-29T16:09:52.772Z,3.40
2022-07-29T16:12:20.695Z,3.10
2022-07-29T16:14:52.133Z,3.00
2022-07-29T16:17:21.143Z,3.00
2022-07-29T16:19:48.933Z,3.10
2022-07-29T16:22:16.633Z,3.10
2022-07-29T16:24:44.346Z,3.50
2022-07-29T16:27:12.595Z,3.00
2022-07-29T16:29:40.482Z,3.30
2022-07-29T16:32:08.600Z,2.90
2022-07-29T16:34:37.011Z,3.10
2022-07-29T16:37:05.710Z,3.00
2022-07-29T16:39:33.570Z,3.40
2022-07-29T16:42:03.176Z,3.10
2022-07-29T16:44:33.096Z,2.70
2022-07-29T16:47:02.609Z,3.00
2022-07-29T16:49:32.414Z,3.40
2022-07-29T16:51:59.887Z,2.90
2022-07-29T16:54:28.676Z,2.80
2022-07-29T16:56:57.037Z,3.10
2022-07-29T16:59:24.794Z,3.20
2022-07-29T17:01:52.350Z,2.90
2022-07-29T17:04:20.035Z,3.10
2022-07-29T17:06:53.341Z,3.50
2022-07-29T17:09:21.696Z,3.10
2022-07-29T17:11:56.416Z,3.10
2022-07-29T17:14:25.727Z,2.90
2022-07-29T17:17:01.430Z,2.90
2022-07-29T17:19:34.013Z,3.00
2022-07-29T17:22:11.771Z,3.00
2022-07-29T17:24:44.319Z,3.00
2022-07-29T17:27:12.508Z,3.20
2022-07-29T17:29:40.255Z,2.80
2022-07-29T17:32:09.413Z,2.90
2022-07-29T17:34:43.053Z,3.20
2022-07-29T17:37:11.941Z,2.90
2022-07-29T17:39:41.540Z,3.30
2022-07-29T17:42:13.653Z,3.60
2022-07-29T17:44:41.583Z,3.50
2022-07-29T17:47:15.693Z,3.10
2022-07-29T17:49:46.184Z,2.90
2022-07-29T17:52:13.694Z,3.00
2022-07-29T17:54:41.630Z,2.90
2022-07-29T17:57:09.210Z,2.80
2022-07-29T17:59:37.281Z,3.20
2022-07-29T18:02:04.730Z,2.80
2022-07-29T18:04:32.015Z,3.20
2022-07-29T18:06:59.728Z,3.40
2022-07-29T18:09:27.343Z,3.30
2022-07-29T18:11:56.612Z,3.70
2022-07-29T18:14:24.115Z,4.00
2022-07-29T18:16:52.861Z,4.10
2022-07-29T18:19:20.318Z,4.20
2022-07-29T18:21:54.641Z,3.80
2022-07-29T18:24:25.986Z,4.20
2022-07-29T18:26:53.866Z,3.70
2022-07-29T18:29:21.718Z,3.80
2022-07-29T18:31:49.304Z,3.40
2022-07-29T18:34:17.677Z,3.20
2022-07-29T18:36:46.225Z,4.20
2022-07-29T18:39:15.433Z,3.70
2022-07-29T18:41:49.972Z,3.40
2022-07-29T18:44:21.837Z,3.20
2022-07-29T18:46:52.338Z,3.50
2022-07-29T18:49:20.277Z,3.60
2022-07-29T18:51:48.383Z,3.70
2022-07-29T18:54:16.057Z,3.60
2022-07-29T18:56:49.215Z,3.60
2022-07-29T18:59:20.074Z,3.90
2022-07-29T19:01:49.147Z,4.00
2022-07-29T19:04:17.981Z,3.50
2022-07-29T19:06:45.520Z,3.60
2022-07-29T19:09:12.875Z,3.90
2022-07-29T19:11:40.655Z,4.00
2022-07-29T19:14:08.103Z,4.50
2022-07-29T19:16:35.911Z,4.00
2022-07-29T19:19:03.416Z,4.30
2022-07-29T19:21:31.185Z,3.80
2022-07-29T19:24:05.220Z,3.70
2022-07-29T19:26:36.799Z,4.40
2022-07-29T19:29:04.827Z,4.50
2022-07-29T19:31:32.289Z,4.10
2022-07-29T19:33:59.722Z,3.70
2022-07-29T19:36:27.806Z,3.70
2022-07-29T19:38:55.051Z,4.20
2022-07-29T19:41:22.417Z,4.20
2022-07-29T19:43:52.873Z,4.10
2022-07-29T19:46:24.473Z,4.20
2022-07-29T19:48:53.447Z,4.70
2022-07-29T19:51:21.254Z,4.60
2022-07-29T19:53:49.022Z,4.60
2022-07-29T19:56:16.574Z,4.50
2022-07-29T19:58:44.945Z,4.30
2022-07-29T20:01:13.036Z,4.50
2022-07-29T20:03:40.494Z,4.40
2022-07-29T20:06:08.042Z,4.40
2022-07-29T20:08:35.502Z,4.30
2022-07-29T20:11:03.874Z,4.50
2022-07-29T20:13:33.509Z,4.40
2022-07-29T20:16:06.412Z,4.30
2022-07-29T20:18:34.034Z,4.90
2022-07-29T20:21:01.800Z,4.90
2022-07-29T20:23:33.371Z,5.10
2022-07-29T20:26:01.214Z,4.90
2022-07-29T20:28:28.574Z,5.40
2022-07-29T20:30:56.102Z,5.30
2022-07-29T20:33:23.479Z,4.70
2022-07-29T20:35:51.573Z,5.50
2022-07-29T20:38:18.815Z,5.10
2022-07-29T20:40:46.282Z,4.90
2022-07-29T20:43:13.714Z,5.20
2022-07-29T20:45:40.959Z,5.70
2022-07-29T20:48:08.517Z,5.30
2022-07-29T20:50:36.396Z,5.70
2022-07-29T20:53:04.164Z,5.20
2022-07-29T20:55:32.322Z,5.20
2022-07-29T20:57:59.586Z,5.60
2022-07-29T21:00:26.830Z,5.40
2022-07-29T21:02:54.587Z,5.50
2022-07-29T21:05:21.963Z,5.60
2022-07-29T21:07:49.508Z,4.90
2022-07-29T21:10:18.720Z,4.70
2022-07-29T21:12:49.054Z,5.20
2022-07-29T21:15:16.690Z,6.10
2022-07-29T21:17:47.656Z,6.50
2022-07-29T21:20:19.801Z,6.90
2022-07-29T21:22:50.446Z,6.90
2022-07-29T21:25:18.298Z,7.00
2022-07-29T21:28:08.002Z,6.20
2022-07-29T21:30:35.642Z,7.00
2022-07-29T21:33:04.107Z,7.20
2022-07-29T21:36:06.227Z,6.10
2022-07-29T21:38:19.855Z,5.60
2022-07-29T21:40:49.099Z,6.10
2022-07-29T21:43:18.445Z,6.10
2022-07-29T21:45:50.841Z,5.10
2022-07-29T21:48:21.960Z,5.50
2022-07-29T21:50:50.122Z,7.40
2022-07-29T21:53:18.096Z,5.60
2022-07-29T21:55:51.010Z,4.80
2022-07-29T21:58:18.725Z,4.70
2022-07-29T22:00:45.979Z,5.00
2022-07-29T22:03:13.338Z,5.30
2022-07-29T22:05:40.565Z,5.50
2022-07-29T22:08:08.269Z,5.20
2022-07-29T22:10:36.344Z,5.50
2022-07-29T22:13:04.299Z,4.90
2022-07-29T22:15:31.957Z,6.00
2022-07-29T22:17:59.605Z,6.00
2022-07-29T22:20:27.272Z,6.30
2022-07-29T22:22:54.755Z,5.80
2022-07-29T22:25:23.494Z,5.90
2022-07-29T22:27:50.651Z,4.90
2022-07-29T22:30:18.014Z,6.00
2022-07-29T22:32:45.295Z,6.00
2022-07-29T22:35:13.035Z,21.50
2022-07-29T22:37:40.405Z,9.10
2022-07-29T22:40:08.580Z,8.30
2022-07-29T22:42:35.920Z,8.80
2022-07-29T22:45:09.811Z,9.50
2022-07-29T22:47:45.802Z,9.00
2022-07-29T22:50:15.088Z,9.00
2022-07-29T22:52:42.435Z,6.40
2022-07-29T22:55:11.238Z,6.30
2022-07-29T22:57:38.578Z,6.70
2022-07-29T23:00:07.261Z,6.20
2022-07-29T23:02:37.497Z,6.30
2022-07-29T23:05:05.594Z,5.20
2022-07-29T23:07:34.853Z,5.10
2022-07-29T23:10:02.519Z,5.60
2022-07-29T23:12:29.771Z,5.50
2022-07-29T23:14:56.883Z,5.10
2022-07-29T23:17:24.376Z,5.20
2022-07-29T23:19:51.635Z,5.60
2022-07-29T23:22:18.983Z,5.40
2022-07-29T23:24:46.236Z,5.00
2022-07-29T23:27:13.595Z,4.90
2022-07-29T23:29:41.079Z,4.50
2022-07-29T23:32:09.857Z,5.30
2022-07-29T23:34:37.195Z,4.70
2022-07-29T23:37:05.061Z,4.60
2022-07-29T23:39:32.324Z,5.20
2022-07-29T23:41:59.559Z,4.70
2022-07-29T23:44:26.710Z,4.70
2022-07-29T23:46:54.083Z,4.30
2022-07-29T23:49:21.584Z,4.20
2022-07-29T23:51:49.096Z,5.00
2022-07-29T23:54:16.555Z,4.80
2022-07-29T23:56:43.798Z,4.90
2022-07-29T23:59:14.131Z,4.30
